sensor_id;sensor_type;location;lat;lon;timestamp;P1;durP1;ratioP1;P2;durP2;ratioP2
3625;SDS011;1827;50.534;8.316;2022-07-06T00:00:05;18.80;;;4.60;;
3625;SDS011;1827;50.534;8.316;2022-07-06T00:02:31;20.77;;;4.70;;
3625;SDS011;1827;50.534;8.316;2022-07-06T00:04:57;17.60;;;4.40;;
3625;SDS011;1827;50.534;8.316;2022-07-06T00:07:23;22.53;;;5.00;;
3625;SDS011;1827;50.534;8.316;2022-07-06T00:09:49;20.67;;;4.90;;
3625;SDS011;1827;50.534;8.316;2022-07-06T00:12:15;18.70;;;4.33;;
3625;SDS011;1827;50.534;8.316;2022-07-06T00:14:40;19.27;;;4.90;;
3625;SDS011;1827;50.534;8.316;2022-07-06T00:17:06;25.33;;;4.80;;
3625;SDS011;1827;50.534;8.316;2022-07-06T00:19:32;21.50;;;5.07;;
3625;SDS011;1827;50.534;8.316;2022-07-06T00:21:58;18.77;;;5.20;;
3625;SDS011;1827;50.534;8.316;2022-07-06T00:24:23;23.57;;;4.93;;
3625;SDS011;1827;50.534;8.316;2022-07-06T00:26:49;23.63;;;5.07;;
3625;SDS011;1827;50.534;8.316;2022-07-06T00:29:15;21.93;;;5.10;;
3625;SDS011;1827;50.534;8.316;2022-07-06T00:31:41;22.33;;;5.03;;
3625;SDS011;1827;50.534;8.316;2022-07-06T00:34:06;17.90;;;4.37;;
3625;SDS011;1827;50.534;8.316;2022-07-06T00:36:32;21.53;;;5.13;;
3625;SDS011;1827;50.534;8.316;2022-07-06T00:38:58;23.40;;;4.83;;
3625;SDS011;1827;50.534;8.316;2022-07-06T00:41:23;20.47;;;4.73;;
3625;SDS011;1827;50.534;8.316;2022-07-06T00:43:50;19.77;;;4.63;;
3625;SDS011;1827;50.534;8.316;2022-07-06T00:46:16;18.70;;;4.47;;
3625;SDS011;1827;50.534;8.316;2022-07-06T00:48:42;21.63;;;4.80;;
3625;SDS011;1827;50.534;8.316;2022-07-06T00:51:07;21.90;;;4.97;;
3625;SDS011;1827;50.534;8.316;2022-07-06T00:53:34;18.93;;;4.70;;
3625;SDS011;1827;50.534;8.316;2022-07-06T00:55:59;19.20;;;4.73;;
3625;SDS011;1827;50.534;8.316;2022-07-06T00:58:26;22.33;;;4.50;;
3625;SDS011;1827;50.534;8.316;2022-07-06T01:00:52;20.00;;;4.80;;
3625;SDS011;1827;50.534;8.316;2022-07-06T01:03:18;22.30;;;5.10;;
3625;SDS011;1827;50.534;8.316;2022-07-06T01:05:44;22.43;;;4.67;;
3625;SDS011;1827;50.534;8.316;2022-07-06T01:08:09;18.23;;;4.90;;
3625;SDS011;1827;50.534;8.316;2022-07-06T01:10:37;19.47;;;5.10;;
3625;SDS011;1827;50.534;8.316;2022-07-06T01:13:03;19.10;;;4.90;;
3625;SDS011;1827;50.534;8.316;2022-07-06T01:15:29;21.00;;;5.07;;
3625;SDS011;1827;50.534;8.316;2022-07-06T01:17:55;20.03;;;4.93;;
3625;SDS011;1827;50.534;8.316;2022-07-06T01:20:27;20.13;;;5.37;;
3625;SDS011;1827;50.534;8.316;2022-07-06T01:22:54;23.30;;;4.87;;
3625;SDS011;1827;50.534;8.316;2022-07-06T01:25:23;20.17;;;5.43;;
3625;SDS011;1827;50.534;8.316;2022-07-06T01:27:49;21.27;;;5.50;;
3625;SDS011;1827;50.534;8.316;2022-07-06T01:30:15;21.53;;;5.90;;
3625;SDS011;1827;50.534;8.316;2022-07-06T01:32:43;21.60;;;5.57;;
3625;SDS011;1827;50.534;8.316;2022-07-06T01:35:10;20.90;;;5.50;;
3625;SDS011;1827;50.534;8.316;2022-07-06T01:37:37;21.73;;;6.03;;
3625;SDS011;1827;50.534;8.316;2022-07-06T01:40:04;18.93;;;5.03;;
3625;SDS011;1827;50.534;8.316;2022-07-06T01:42:32;19.47;;;4.80;;
3625;SDS011;1827;50.534;8.316;2022-07-06T01:44:58;23.93;;;6.10;;
3625;SDS011;1827;50.534;8.316;2022-07-06T01:47:24;25.93;;;5.80;;
3625;SDS011;1827;50.534;8.316;2022-07-06T01:49:50;21.47;;;6.10;;
3625;SDS011;1827;50.534;8.316;2022-07-06T01:52:17;23.23;;;5.33;;
3625;SDS011;1827;50.534;8.316;2022-07-06T01:54:43;23.33;;;5.53;;
3625;SDS011;1827;50.534;8.316;2022-07-06T01:57:09;21.37;;;5.97;;
3625;SDS011;1827;50.534;8.316;2022-07-06T01:59:35;19.90;;;5.60;;
3625;SDS011;1827;50.534;8.316;2022-07-06T02:02:01;19.73;;;5.40;;
3625;SDS011;1827;50.534;8.316;2022-07-06T02:04:27;23.80;;;5.33;;
3625;SDS011;1827;50.534;8.316;2022-07-06T02:06:53;30.00;;;5.10;;
3625;SDS011;1827;50.534;8.316;2022-07-06T02:09:19;20.90;;;4.97;;
3625;SDS011;1827;50.534;8.316;2022-07-06T02:11:45;21.30;;;5.30;;
3625;SDS011;1827;50.534;8.316;2022-07-06T02:14:12;21.30;;;5.27;;
3625;SDS011;1827;50.534;8.316;2022-07-06T02:16:39;19.80;;;4.93;;
3625;SDS011;1827;50.534;8.316;2022-07-06T02:19:05;20.60;;;5.30;;
3625;SDS011;1827;50.534;8.316;2022-07-06T02:21:31;19.30;;;4.87;;
3625;SDS011;1827;50.534;8.316;2022-07-06T02:23:56;20.77;;;4.90;;
3625;SDS011;1827;50.534;8.316;2022-07-06T02:26:23;21.03;;;5.20;;
3625;SDS011;1827;50.534;8.316;2022-07-06T02:28:49;21.03;;;5.50;;
3625;SDS011;1827;50.534;8.316;2022-07-06T02:31:15;21.70;;;4.80;;
3625;SDS011;1827;50.534;8.316;2022-07-06T02:33:43;18.77;;;4.50;;
3625;SDS011;1827;50.534;8.316;2022-07-06T02:36:10;22.47;;;4.97;;
3625;SDS011;1827;50.534;8.316;2022-07-06T02:38:36;18.60;;;4.90;;
3625;SDS011;1827;50.534;8.316;2022-07-06T02:41:02;20.73;;;4.60;;
3625;SDS011;1827;50.534;8.316;2022-07-06T02:43:28;23.83;;;4.87;;
3625;SDS011;1827;50.534;8.316;2022-07-06T02:45:54;20.80;;;4.63;;
3625;SDS011;1827;50.534;8.316;2022-07-06T02:48:20;18.80;;;4.50;;
3625;SDS011;1827;50.534;8.316;2022-07-06T02:50:48;22.83;;;5.00;;
3625;SDS011;1827;50.534;8.316;2022-07-06T02:53:14;21.60;;;4.60;;
3625;SDS011;1827;50.534;8.316;2022-07-06T02:55:40;21.03;;;4.37;;
3625;SDS011;1827;50.534;8.316;2022-07-06T02:58:06;20.30;;;4.50;;
3625;SDS011;1827;50.534;8.316;2022-07-06T03:00:32;21.50;;;4.93;;
3625;SDS011;1827;50.534;8.316;2022-07-06T03:02:58;21.37;;;4.60;;
3625;SDS011;1827;50.534;8.316;2022-07-06T03:05:24;18.00;;;4.40;;
3625;SDS011;1827;50.534;8.316;2022-07-06T03:07:50;22.27;;;4.80;;
3625;SDS011;1827;50.534;8.316;2022-07-06T03:10:16;21.70;;;5.00;;
3625;SDS011;1827;50.534;8.316;2022-07-06T03:12:41;22.73;;;5.50;;
3625;SDS011;1827;50.534;8.316;2022-07-06T03:15:07;22.17;;;4.87;;
3625;SDS011;1827;50.534;8.316;2022-07-06T03:17:39;23.03;;;4.40;;
3625;SDS011;1827;50.534;8.316;2022-07-06T03:20:05;23.07;;;4.70;;
3625;SDS011;1827;50.534;8.316;2022-07-06T03:22:31;21.23;;;4.83;;
3625;SDS011;1827;50.534;8.316;2022-07-06T03:24:58;23.30;;;4.80;;
3625;SDS011;1827;50.534;8.316;2022-07-06T03:27:24;21.80;;;5.10;;
3625;SDS011;1827;50.534;8.316;2022-07-06T03:29:50;21.77;;;4.40;;
3625;SDS011;1827;50.534;8.316;2022-07-06T03:32:17;20.43;;;5.10;;
3625;SDS011;1827;50.534;8.316;2022-07-06T03:34:43;19.60;;;4.63;;
3625;SDS011;1827;50.534;8.316;2022-07-06T03:37:10;18.20;;;4.40;;
3625;SDS011;1827;50.534;8.316;2022-07-06T03:39:38;18.87;;;4.60;;
3625;SDS011;1827;50.534;8.316;2022-07-06T03:42:05;20.20;;;4.67;;
3625;SDS011;1827;50.534;8.316;2022-07-06T03:44:31;18.20;;;4.70;;
3625;SDS011;1827;50.534;8.316;2022-07-06T03:46:57;20.57;;;4.50;;
3625;SDS011;1827;50.534;8.316;2022-07-06T03:49:25;18.30;;;4.20;;
3625;SDS011;1827;50.534;8.316;2022-07-06T03:51:53;24.20;;;4.57;;
3625;SDS011;1827;50.534;8.316;2022-07-06T03:54:20;19.43;;;4.43;;
3625;SDS011;1827;50.534;8.316;2022-07-06T03:56:47;21.27;;;4.60;;
3625;SDS011;1827;50.534;8.316;2022-07-06T03:59:14;21.43;;;4.70;;
3625;SDS011;1827;50.534;8.316;2022-07-06T04:01:40;20.20;;;5.00;;
3625;SDS011;1827;50.534;8.316;2022-07-06T04:04:07;18.50;;;4.67;;
3625;SDS011;1827;50.534;8.316;2022-07-06T04:06:36;19.40;;;4.67;;
3625;SDS011;1827;50.534;8.316;2022-07-06T04:09:03;22.50;;;5.17;;
3625;SDS011;1827;50.534;8.316;2022-07-06T04:11:29;19.27;;;4.50;;
3625;SDS011;1827;50.534;8.316;2022-07-06T04:13:56;19.90;;;4.80;;
3625;SDS011;1827;50.534;8.316;2022-07-06T04:16:22;21.07;;;5.60;;
3625;SDS011;1827;50.534;8.316;2022-07-06T04:18:48;22.57;;;5.23;;
3625;SDS011;1827;50.534;8.316;2022-07-06T04:21:14;21.33;;;5.10;;
3625;SDS011;1827;50.534;8.316;2022-07-06T04:23:40;22.93;;;5.67;;
3625;SDS011;1827;50.534;8.316;2022-07-06T04:26:08;22.53;;;4.50;;
3625;SDS011;1827;50.534;8.316;2022-07-06T04:28:36;20.27;;;4.80;;
3625;SDS011;1827;50.534;8.316;2022-07-06T04:31:02;20.90;;;4.37;;
3625;SDS011;1827;50.534;8.316;2022-07-06T04:33:28;19.60;;;4.90;;
3625;SDS011;1827;50.534;8.316;2022-07-06T04:35:54;21.63;;;4.90;;
3625;SDS011;1827;50.534;8.316;2022-07-06T04:38:24;26.07;;;5.43;;
3625;SDS011;1827;50.534;8.316;2022-07-06T04:40:52;20.20;;;4.87;;
3625;SDS011;1827;50.534;8.316;2022-07-06T04:43:19;18.73;;;4.70;;
3625;SDS011;1827;50.534;8.316;2022-07-06T04:45:44;23.53;;;4.73;;
3625;SDS011;1827;50.534;8.316;2022-07-06T04:48:10;25.60;;;5.63;;
3625;SDS011;1827;50.534;8.316;2022-07-06T04:50:36;26.40;;;4.73;;
3625;SDS011;1827;50.534;8.316;2022-07-06T04:53:04;24.30;;;5.20;;
3625;SDS011;1827;50.534;8.316;2022-07-06T04:55:32;21.60;;;5.23;;
3625;SDS011;1827;50.534;8.316;2022-07-06T04:57:58;31.53;;;4.33;;
3625;SDS011;1827;50.534;8.316;2022-07-06T05:00:24;20.57;;;5.37;;
3625;SDS011;1827;50.534;8.316;2022-07-06T05:02:51;23.53;;;4.83;;
3625;SDS011;1827;50.534;8.316;2022-07-06T05:05:19;18.73;;;4.83;;
3625;SDS011;1827;50.534;8.316;2022-07-06T05:07:46;20.90;;;4.40;;
3625;SDS011;1827;50.534;8.316;2022-07-06T05:10:12;21.17;;;4.23;;
3625;SDS011;1827;50.534;8.316;2022-07-06T05:12:41;19.63;;;4.03;;
3625;SDS011;1827;50.534;8.316;2022-07-06T05:15:07;22.37;;;4.40;;
3625;SDS011;1827;50.534;8.316;2022-07-06T05:17:34;22.33;;;4.03;;
3625;SDS011;1827;50.534;8.316;2022-07-06T05:20:00;18.43;;;4.30;;
3625;SDS011;1827;50.534;8.316;2022-07-06T05:22:30;24.30;;;4.43;;
3625;SDS011;1827;50.534;8.316;2022-07-06T05:24:56;18.63;;;4.47;;
3625;SDS011;1827;50.534;8.316;2022-07-06T05:27:22;20.07;;;4.30;;
3625;SDS011;1827;50.534;8.316;2022-07-06T05:29:48;19.13;;;4.43;;
3625;SDS011;1827;50.534;8.316;2022-07-06T05:32:15;22.40;;;4.37;;
3625;SDS011;1827;50.534;8.316;2022-07-06T05:34:41;23.73;;;4.60;;
3625;SDS011;1827;50.534;8.316;2022-07-06T05:37:07;24.43;;;4.23;;
3625;SDS011;1827;50.534;8.316;2022-07-06T05:39:34;23.83;;;4.57;;
3625;SDS011;1827;50.534;8.316;2022-07-06T05:42:00;21.07;;;3.77;;
3625;SDS011;1827;50.534;8.316;2022-07-06T05:44:26;19.57;;;3.97;;
3625;SDS011;1827;50.534;8.316;2022-07-06T05:46:51;24.57;;;3.93;;
3625;SDS011;1827;50.534;8.316;2022-07-06T05:49:37;22.37;;;3.77;;
3625;SDS011;1827;50.534;8.316;2022-07-06T05:52:21;20.77;;;4.20;;
3625;SDS011;1827;50.534;8.316;2022-07-06T05:54:47;24.90;;;4.70;;
3625;SDS011;1827;50.534;8.316;2022-07-06T05:57:12;23.63;;;4.00;;
3625;SDS011;1827;50.534;8.316;2022-07-06T05:59:38;18.57;;;3.80;;
3625;SDS011;1827;50.534;8.316;2022-07-06T06:02:04;19.10;;;4.13;;
3625;SDS011;1827;50.534;8.316;2022-07-06T06:04:30;23.00;;;4.60;;
3625;SDS011;1827;50.534;8.316;2022-07-06T06:06:56;20.20;;;5.10;;
3625;SDS011;1827;50.534;8.316;2022-07-06T06:09:22;18.30;;;4.50;;
3625;SDS011;1827;50.534;8.316;2022-07-06T06:11:47;20.93;;;4.10;;
3625;SDS011;1827;50.534;8.316;2022-07-06T06:14:13;17.90;;;4.20;;
3625;SDS011;1827;50.534;8.316;2022-07-06T06:16:39;21.67;;;3.97;;
3625;SDS011;1827;50.534;8.316;2022-07-06T06:19:04;20.60;;;6.00;;
3625;SDS011;1827;50.534;8.316;2022-07-06T06:21:30;21.93;;;5.27;;
3625;SDS011;1827;50.534;8.316;2022-07-06T06:23:56;17.37;;;4.40;;
3625;SDS011;1827;50.534;8.316;2022-07-06T06:26:21;19.40;;;5.20;;
3625;SDS011;1827;50.534;8.316;2022-07-06T06:28:47;18.37;;;5.10;;
3625;SDS011;1827;50.534;8.316;2022-07-06T06:31:13;19.20;;;5.30;;
3625;SDS011;1827;50.534;8.316;2022-07-06T06:33:38;21.40;;;4.83;;
3625;SDS011;1827;50.534;8.316;2022-07-06T06:36:04;22.17;;;6.07;;
3625;SDS011;1827;50.534;8.316;2022-07-06T06:38:30;20.70;;;5.00;;
3625;SDS011;1827;50.534;8.316;2022-07-06T06:40:56;23.53;;;5.40;;
3625;SDS011;1827;50.534;8.316;2022-07-06T06:43:22;21.07;;;5.80;;
3625;SDS011;1827;50.534;8.316;2022-07-06T06:45:58;22.93;;;5.13;;
3625;SDS011;1827;50.534;8.316;2022-07-06T06:48:24;19.13;;;4.80;;
3625;SDS011;1827;50.534;8.316;2022-07-06T06:50:50;18.00;;;4.43;;
3625;SDS011;1827;50.534;8.316;2022-07-06T06:53:16;17.07;;;4.17;;
3625;SDS011;1827;50.534;8.316;2022-07-06T06:55:41;18.40;;;4.63;;
3625;SDS011;1827;50.534;8.316;2022-07-06T06:58:07;18.77;;;4.97;;
3625;SDS011;1827;50.534;8.316;2022-07-06T07:00:33;16.33;;;4.50;;
3625;SDS011;1827;50.534;8.316;2022-07-06T07:02:59;17.40;;;4.00;;
3625;SDS011;1827;50.534;8.316;2022-07-06T07:05:25;19.67;;;4.70;;
3625;SDS011;1827;50.534;8.316;2022-07-06T07:07:51;16.60;;;4.10;;
3625;SDS011;1827;50.534;8.316;2022-07-06T07:10:17;21.73;;;4.70;;
3625;SDS011;1827;50.534;8.316;2022-07-06T07:12:46;19.80;;;4.07;;
3625;SDS011;1827;50.534;8.316;2022-07-06T07:15:12;24.00;;;3.80;;
3625;SDS011;1827;50.534;8.316;2022-07-06T07:17:39;15.93;;;3.23;;
3625;SDS011;1827;50.534;8.316;2022-07-06T07:20:05;16.27;;;3.20;;
3625;SDS011;1827;50.534;8.316;2022-07-06T07:22:31;17.17;;;3.10;;
3625;SDS011;1827;50.534;8.316;2022-07-06T07:24:57;18.23;;;2.90;;
3625;SDS011;1827;50.534;8.316;2022-07-06T07:27:24;16.23;;;2.90;;
3625;SDS011;1827;50.534;8.316;2022-07-06T07:29:50;16.27;;;3.33;;
3625;SDS011;1827;50.534;8.316;2022-07-06T07:32:16;17.93;;;3.80;;
3625;SDS011;1827;50.534;8.316;2022-07-06T07:34:42;15.80;;;3.40;;
3625;SDS011;1827;50.534;8.316;2022-07-06T07:37:07;16.57;;;3.50;;
3625;SDS011;1827;50.534;8.316;2022-07-06T07:39:33;18.00;;;3.40;;
3625;SDS011;1827;50.534;8.316;2022-07-06T07:41:59;18.17;;;3.90;;
3625;SDS011;1827;50.534;8.316;2022-07-06T07:44:24;18.93;;;4.20;;
3625;SDS011;1827;50.534;8.316;2022-07-06T07:46:52;16.77;;;3.37;;
3625;SDS011;1827;50.534;8.316;2022-07-06T07:49:18;18.47;;;3.40;;
3625;SDS011;1827;50.534;8.316;2022-07-06T07:51:46;24.33;;;3.13;;
3625;SDS011;1827;50.534;8.316;2022-07-06T07:54:12;19.20;;;3.20;;
3625;SDS011;1827;50.534;8.316;2022-07-06T07:56:38;16.97;;;3.27;;
3625;SDS011;1827;50.534;8.316;2022-07-06T07:59:06;17.93;;;3.20;;
3625;SDS011;1827;50.534;8.316;2022-07-06T08:01:34;19.83;;;3.70;;
3625;SDS011;1827;50.534;8.316;2022-07-06T08:04:00;20.73;;;3.60;;
3625;SDS011;1827;50.534;8.316;2022-07-06T08:06:25;16.53;;;2.97;;
3625;SDS011;1827;50.534;8.316;2022-07-06T08:08:51;24.00;;;3.50;;
3625;SDS011;1827;50.534;8.316;2022-07-06T08:11:17;22.23;;;2.80;;
3625;SDS011;1827;50.534;8.316;2022-07-06T08:13:42;16.63;;;2.30;;
3625;SDS011;1827;50.534;8.316;2022-07-06T08:16:08;16.47;;;2.90;;
3625;SDS011;1827;50.534;8.316;2022-07-06T08:18:35;19.40;;;2.60;;
3625;SDS011;1827;50.534;8.316;2022-07-06T08:21:01;14.53;;;2.03;;
3625;SDS011;1827;50.534;8.316;2022-07-06T08:23:27;16.80;;;2.40;;
3625;SDS011;1827;50.534;8.316;2022-07-06T08:25:53;15.23;;;2.47;;
3625;SDS011;1827;50.534;8.316;2022-07-06T08:28:19;14.77;;;1.73;;
3625;SDS011;1827;50.534;8.316;2022-07-06T08:30:44;16.23;;;1.73;;
3625;SDS011;1827;50.534;8.316;2022-07-06T08:33:10;22.00;;;1.97;;
3625;SDS011;1827;50.534;8.316;2022-07-06T08:35:36;15.50;;;1.77;;
3625;SDS011;1827;50.534;8.316;2022-07-06T08:38:01;20.33;;;1.90;;
3625;SDS011;1827;50.534;8.316;2022-07-06T08:40:34;17.00;;;1.80;;
3625;SDS011;1827;50.534;8.316;2022-07-06T08:43:00;16.80;;;1.73;;
3625;SDS011;1827;50.534;8.316;2022-07-06T08:45:26;16.70;;;1.83;;
3625;SDS011;1827;50.534;8.316;2022-07-06T08:47:54;13.60;;;1.70;;
3625;SDS011;1827;50.534;8.316;2022-07-06T08:50:22;19.53;;;1.90;;
3625;SDS011;1827;50.534;8.316;2022-07-06T08:52:49;17.03;;;2.07;;
3625;SDS011;1827;50.534;8.316;2022-07-06T08:55:16;15.60;;;1.67;;
3625;SDS011;1827;50.534;8.316;2022-07-06T08:57:44;13.73;;;1.67;;
3625;SDS011;1827;50.534;8.316;2022-07-06T09:00:11;14.80;;;1.83;;
3625;SDS011;1827;50.534;8.316;2022-07-06T09:02:37;16.47;;;1.70;;
3625;SDS011;1827;50.534;8.316;2022-07-06T09:05:05;15.97;;;1.90;;
3625;SDS011;1827;50.534;8.316;2022-07-06T09:07:33;16.73;;;1.80;;
3625;SDS011;1827;50.534;8.316;2022-07-06T09:09:59;14.10;;;1.77;;
3625;SDS011;1827;50.534;8.316;2022-07-06T09:12:27;15.97;;;1.70;;
3625;SDS011;1827;50.534;8.316;2022-07-06T09:14:56;16.53;;;1.70;;
3625;SDS011;1827;50.534;8.316;2022-07-06T09:17:25;13.50;;;1.50;;
3625;SDS011;1827;50.534;8.316;2022-07-06T09:19:53;14.47;;;1.70;;
3625;SDS011;1827;50.534;8.316;2022-07-06T09:25:06;14.30;;;1.80;;
3625;SDS011;1827;50.534;8.316;2022-07-06T09:27:42;14.60;;;1.60;;
3625;SDS011;1827;50.534;8.316;2022-07-06T09:30:19;13.63;;;1.47;;
3625;SDS011;1827;50.534;8.316;2022-07-06T09:32:46;16.17;;;1.80;;
3625;SDS011;1827;50.534;8.316;2022-07-06T09:40:31;17.87;;;1.50;;
3625;SDS011;1827;50.534;8.316;2022-07-06T09:45:35;13.70;;;1.40;;
3625;SDS011;1827;50.534;8.316;2022-07-06T09:48:05;14.20;;;1.30;;
3625;SDS011;1827;50.534;8.316;2022-07-06T09:50:44;24.03;;;1.63;;
3625;SDS011;1827;50.534;8.316;2022-07-06T09:53:12;14.63;;;1.53;;
3625;SDS011;1827;50.534;8.316;2022-07-06T09:55:42;15.30;;;1.30;;
3625;SDS011;1827;50.534;8.316;2022-07-06T09:58:09;17.30;;;1.50;;
3625;SDS011;1827;50.534;8.316;2022-07-06T10:00:35;20.43;;;1.80;;
3625;SDS011;1827;50.534;8.316;2022-07-06T10:03:01;14.40;;;1.30;;
3625;SDS011;1827;50.534;8.316;2022-07-06T10:05:27;13.77;;;1.43;;
3625;SDS011;1827;50.534;8.316;2022-07-06T10:08:00;14.10;;;1.50;;
3625;SDS011;1827;50.534;8.316;2022-07-06T10:10:27;18.83;;;2.30;;
3625;SDS011;1827;50.534;8.316;2022-07-06T10:12:54;13.97;;;1.40;;
3625;SDS011;1827;50.534;8.316;2022-07-06T10:15:24;13.80;;;1.40;;
3625;SDS011;1827;50.534;8.316;2022-07-06T10:17:51;21.33;;;1.37;;
3625;SDS011;1827;50.534;8.316;2022-07-06T10:20:20;14.60;;;1.50;;
3625;SDS011;1827;50.534;8.316;2022-07-06T10:22:46;14.17;;;1.40;;
3625;SDS011;1827;50.534;8.316;2022-07-06T10:25:15;14.40;;;1.80;;
3625;SDS011;1827;50.534;8.316;2022-07-06T10:27:47;20.13;;;1.70;;
3625;SDS011;1827;50.534;8.316;2022-07-06T10:30:13;14.27;;;1.70;;
3625;SDS011;1827;50.534;8.316;2022-07-06T10:32:41;13.27;;;1.60;;
3625;SDS011;1827;50.534;8.316;2022-07-06T10:35:08;17.17;;;1.83;;
3625;SDS011;1827;50.534;8.316;2022-07-06T10:37:34;15.53;;;1.83;;
3625;SDS011;1827;50.534;8.316;2022-07-06T10:40:00;15.23;;;1.57;;
3625;SDS011;1827;50.534;8.316;2022-07-06T10:42:49;13.70;;;1.50;;
3625;SDS011;1827;50.534;8.316;2022-07-06T10:50:36;16.70;;;1.70;;
3625;SDS011;1827;50.534;8.316;2022-07-06T10:53:10;12.80;;;1.40;;
3625;SDS011;1827;50.534;8.316;2022-07-06T10:55:38;18.63;;;1.60;;
3625;SDS011;1827;50.534;8.316;2022-07-06T10:58:05;16.20;;;1.60;;
3625;SDS011;1827;50.534;8.316;2022-07-06T11:00:50;16.93;;;2.00;;
3625;SDS011;1827;50.534;8.316;2022-07-06T11:05:58;13.63;;;1.50;;
3625;SDS011;1827;50.534;8.316;2022-07-06T11:14:18;17.80;;;1.60;;
3625;SDS011;1827;50.534;8.316;2022-07-06T11:19:13;15.23;;;1.73;;
3625;SDS011;1827;50.534;8.316;2022-07-06T11:24:13;15.20;;;1.90;;
3625;SDS011;1827;50.534;8.316;2022-07-06T11:26:50;14.37;;;1.60;;
3625;SDS011;1827;50.534;8.316;2022-07-06T11:29:18;15.00;;;1.63;;
3625;SDS011;1827;50.534;8.316;2022-07-06T11:31:48;14.60;;;1.67;;
3625;SDS011;1827;50.534;8.316;2022-07-06T11:34:20;15.23;;;1.50;;
3625;SDS011;1827;50.534;8.316;2022-07-06T11:36:56;15.03;;;1.90;;
3625;SDS011;1827;50.534;8.316;2022-07-06T11:39:30;15.40;;;1.80;;
3625;SDS011;1827;50.534;8.316;2022-07-06T11:42:06;13.37;;;1.70;;
3625;SDS011;1827;50.534;8.316;2022-07-06T11:44:33;15.53;;;1.90;;
3625;SDS011;1827;50.534;8.316;2022-07-06T11:47:00;17.20;;;1.90;;
3625;SDS011;1827;50.534;8.316;2022-07-06T11:49:28;14.00;;;1.70;;
3625;SDS011;1827;50.534;8.316;2022-07-06T11:51:55;13.63;;;1.57;;
3625;SDS011;1827;50.534;8.316;2022-07-06T11:54:22;16.87;;;1.83;;
3625;SDS011;1827;50.534;8.316;2022-07-06T11:59:22;18.10;;;2.37;;
3625;SDS011;1827;50.534;8.316;2022-07-06T12:01:59;18.47;;;2.70;;
3625;SDS011;1827;50.534;8.316;2022-07-06T12:04:26;25.10;;;2.03;;
3625;SDS011;1827;50.534;8.316;2022-07-06T12:06:53;19.33;;;2.30;;
3625;SDS011;1827;50.534;8.316;2022-07-06T12:09:19;17.20;;;2.07;;
3625;SDS011;1827;50.534;8.316;2022-07-06T12:11:46;15.93;;;2.17;;
3625;SDS011;1827;50.534;8.316;2022-07-06T12:14:16;18.17;;;1.97;;
3625;SDS011;1827;50.534;8.316;2022-07-06T12:16:43;14.70;;;1.60;;
3625;SDS011;1827;50.534;8.316;2022-07-06T12:19:09;18.70;;;2.07;;
3625;SDS011;1827;50.534;8.316;2022-07-06T12:21:36;15.00;;;1.73;;
3625;SDS011;1827;50.534;8.316;2022-07-06T12:24:16;16.07;;;1.90;;
3625;SDS011;1827;50.534;8.316;2022-07-06T12:26:47;18.00;;;1.97;;
3625;SDS011;1827;50.534;8.316;2022-07-06T12:29:13;22.17;;;2.07;;
3625;SDS011;1827;50.534;8.316;2022-07-06T12:31:39;16.93;;;2.00;;
3625;SDS011;1827;50.534;8.316;2022-07-06T12:34:13;14.47;;;1.97;;
3625;SDS011;1827;50.534;8.316;2022-07-06T12:36:50;13.63;;;1.90;;
3625;SDS011;1827;50.534;8.316;2022-07-06T12:39:18;15.03;;;2.00;;
3625;SDS011;1827;50.534;8.316;2022-07-06T12:41:54;13.37;;;1.67;;
3625;SDS011;1827;50.534;8.316;2022-07-06T12:44:27;13.90;;;1.40;;
3625;SDS011;1827;50.534;8.316;2022-07-06T12:47:07;17.73;;;1.70;;
3625;SDS011;1827;50.534;8.316;2022-07-06T12:49:34;13.07;;;1.63;;
3625;SDS011;1827;50.534;8.316;2022-07-06T12:52:02;16.27;;;2.30;;
3625;SDS011;1827;50.534;8.316;2022-07-06T12:54:47;14.13;;;1.87;;
3625;SDS011;1827;50.534;8.316;2022-07-06T13:02:16;15.10;;;2.20;;
3625;SDS011;1827;50.534;8.316;2022-07-06T13:05:05;19.93;;;2.30;;
3625;SDS011;1827;50.534;8.316;2022-07-06T13:07:37;20.60;;;2.17;;
3625;SDS011;1827;50.534;8.316;2022-07-06T13:10:07;15.40;;;2.03;;
3625;SDS011;1827;50.534;8.316;2022-07-06T13:12:35;15.80;;;1.97;;
3625;SDS011;1827;50.534;8.316;2022-07-06T13:15:01;14.77;;;2.00;;
3625;SDS011;1827;50.534;8.316;2022-07-06T13:17:27;14.47;;;1.90;;
3625;SDS011;1827;50.534;8.316;2022-07-06T13:19:53;16.43;;;1.93;;
3625;SDS011;1827;50.534;8.316;2022-07-06T13:22:19;15.70;;;1.97;;
3625;SDS011;1827;50.534;8.316;2022-07-06T13:24:45;17.47;;;2.03;;
3625;SDS011;1827;50.534;8.316;2022-07-06T13:27:10;19.50;;;2.00;;
3625;SDS011;1827;50.534;8.316;2022-07-06T13:29:37;16.20;;;2.47;;
3625;SDS011;1827;50.534;8.316;2022-07-06T13:32:03;19.03;;;2.10;;
3625;SDS011;1827;50.534;8.316;2022-07-06T13:34:29;18.93;;;2.80;;
3625;SDS011;1827;50.534;8.316;2022-07-06T13:36:55;16.97;;;2.20;;
3625;SDS011;1827;50.534;8.316;2022-07-06T13:39:21;16.60;;;2.10;;
3625;SDS011;1827;50.534;8.316;2022-07-06T13:41:47;15.53;;;2.40;;
3625;SDS011;1827;50.534;8.316;2022-07-06T13:44:12;15.37;;;2.10;;
3625;SDS011;1827;50.534;8.316;2022-07-06T13:46:38;15.70;;;2.10;;
3625;SDS011;1827;50.534;8.316;2022-07-06T13:49:05;18.53;;;2.00;;
3625;SDS011;1827;50.534;8.316;2022-07-06T13:51:31;15.83;;;2.40;;
3625;SDS011;1827;50.534;8.316;2022-07-06T13:54:00;15.70;;;2.57;;
3625;SDS011;1827;50.534;8.316;2022-07-06T13:56:26;17.97;;;2.93;;
3625;SDS011;1827;50.534;8.316;2022-07-06T13:58:52;16.83;;;2.23;;
3625;SDS011;1827;50.534;8.316;2022-07-06T14:01:18;17.67;;;2.00;;
3625;SDS011;1827;50.534;8.316;2022-07-06T14:03:44;22.43;;;2.27;;
3625;SDS011;1827;50.534;8.316;2022-07-06T14:06:10;14.90;;;2.10;;
3625;SDS011;1827;50.534;8.316;2022-07-06T14:08:37;21.83;;;2.80;;
3625;SDS011;1827;50.534;8.316;2022-07-06T14:11:04;14.20;;;2.10;;
3625;SDS011;1827;50.534;8.316;2022-07-06T14:13:32;17.77;;;2.20;;
3625;SDS011;1827;50.534;8.316;2022-07-06T14:16:01;15.70;;;2.27;;
3625;SDS011;1827;50.534;8.316;2022-07-06T14:18:27;21.47;;;2.50;;
3625;SDS011;1827;50.534;8.316;2022-07-06T14:20:53;14.50;;;2.00;;
3625;SDS011;1827;50.534;8.316;2022-07-06T14:23:19;16.00;;;2.20;;
3625;SDS011;1827;50.534;8.316;2022-07-06T14:25:46;17.50;;;2.00;;
3625;SDS011;1827;50.534;8.316;2022-07-06T14:28:13;18.63;;;2.03;;
3625;SDS011;1827;50.534;8.316;2022-07-06T14:30:39;17.70;;;2.60;;
3625;SDS011;1827;50.534;8.316;2022-07-06T14:33:07;20.17;;;2.20;;
3625;SDS011;1827;50.534;8.316;2022-07-06T14:35:38;18.20;;;2.17;;
3625;SDS011;1827;50.534;8.316;2022-07-06T14:38:08;18.03;;;2.10;;
3625;SDS011;1827;50.534;8.316;2022-07-06T14:40:34;18.10;;;2.00;;
3625;SDS011;1827;50.534;8.316;2022-07-06T14:43:01;15.27;;;2.30;;
3625;SDS011;1827;50.534;8.316;2022-07-06T14:45:28;14.83;;;1.90;;
3625;SDS011;1827;50.534;8.316;2022-07-06T14:47:54;16.07;;;2.20;;
3625;SDS011;1827;50.534;8.316;2022-07-06T14:50:21;14.70;;;1.77;;
3625;SDS011;1827;50.534;8.316;2022-07-06T14:52:50;21.07;;;2.00;;
3625;SDS011;1827;50.534;8.316;2022-07-06T14:55:19;17.13;;;1.83;;
3625;SDS011;1827;50.534;8.316;2022-07-06T14:57:46;16.13;;;2.10;;
3625;SDS011;1827;50.534;8.316;2022-07-06T15:00:12;19.73;;;2.20;;
3625;SDS011;1827;50.534;8.316;2022-07-06T15:02:38;15.20;;;1.97;;
3625;SDS011;1827;50.534;8.316;2022-07-06T15:05:04;15.23;;;2.20;;
3625;SDS011;1827;50.534;8.316;2022-07-06T15:07:30;15.40;;;1.90;;
3625;SDS011;1827;50.534;8.316;2022-07-06T15:09:56;14.30;;;1.87;;
3625;SDS011;1827;50.534;8.316;2022-07-06T15:12:22;16.87;;;2.07;;
3625;SDS011;1827;50.534;8.316;2022-07-06T15:14:47;20.47;;;2.20;;
3625;SDS011;1827;50.534;8.316;2022-07-06T15:17:13;17.60;;;2.10;;
3625;SDS011;1827;50.534;8.316;2022-07-06T15:19:39;19.50;;;2.10;;
3625;SDS011;1827;50.534;8.316;2022-07-06T15:22:06;13.77;;;1.63;;
3625;SDS011;1827;50.534;8.316;2022-07-06T15:24:31;16.07;;;2.10;;
3625;SDS011;1827;50.534;8.316;2022-07-06T15:26:57;14.70;;;2.00;;
3625;SDS011;1827;50.534;8.316;2022-07-06T15:29:23;14.83;;;1.80;;
3625;SDS011;1827;50.534;8.316;2022-07-06T15:31:50;15.37;;;1.60;;
3625;SDS011;1827;50.534;8.316;2022-07-06T15:34:15;14.40;;;1.60;;
3625;SDS011;1827;50.534;8.316;2022-07-06T15:36:41;15.67;;;2.00;;